createdAt,value
2017-12-02T00:02:25.048Z,4.50
2017-12-02T00:04:52.549Z,4.50
2017-12-02T00:07:20.093Z,4.40
2017-12-02T00:09:47.597Z,4.40
2017-12-02T00:12:15.064Z,4.30
2017-12-02T00:14:43.483Z,4.30
2017-12-02T00:17:11.021Z,4.30
2017-12-02T00:19:38.598Z,4.30
2017-12-02T00:22:06.087Z,4.30
2017-12-02T00:27:06.637Z,4.40
2017-12-02T00:29:34.255Z,4.40
2017-12-02T00:32:01.755Z,4.40
2017-12-02T00:34:29.276Z,4.40
2017-12-02T00:36:56.778Z,4.40
2017-12-02T00:39:24.257Z,4.40
2017-12-02T00:41:51.742Z,4.30
2017-12-02T00:44:20.001Z,4.30
2017-12-02T00:46:47.548Z,4.30
2017-12-02T00:49:15.034Z,4.30
2017-12-02T00:51:43.282Z,4.30
2017-12-02T00:54:10.782Z,4.30
2017-12-02T00:56:38.455Z,4.40
2017-12-02T00:59:05.954Z,4.40
2017-12-02T01:01:33.548Z,4.50
2017-12-02T01:04:01.042Z,4.50
2017-12-02T01:06:28.596Z,4.40
2017-12-02T01:08:56.069Z,4.50
2017-12-02T01:11:23.584Z,4.50
2017-12-02T01:13:51.836Z,4.40
2017-12-02T01:16:19.310Z,4.40
2017-12-02T01:18:46.812Z,4.40
2017-12-02T01:21:14.307Z,4.40
2017-12-02T01:23:41.832Z,4.40
2017-12-02T01:26:09.323Z,4.40
2017-12-02T01:28:38.320Z,4.40
2017-12-02T01:31:05.876Z,4.40
2017-12-02T01:33:33.377Z,4.40
2017-12-02T01:36:00.892Z,4.40
2017-12-02T01:38:28.417Z,4.40
2017-12-02T01:40:55.976Z,4.40
2017-12-02T01:43:23.484Z,4.40
2017-12-02T01:45:51.752Z,4.40
2017-12-02T01:48:19.449Z,4.40
2017-12-02T01:50:47.029Z,4.50
2017-12-02T01:53:14.528Z,4.50
2017-12-02T01:55:42.185Z,4.50
2017-12-02T01:58:09.685Z,4.50
2017-12-02T02:00:37.166Z,4.50
2017-12-02T02:03:04.673Z,4.50
2017-12-02T02:05:32.216Z,4.50
2017-12-02T02:07:59.691Z,4.40
2017-12-02T02:10:27.387Z,4.40
2017-12-02T02:12:55.644Z,4.40
2017-12-02T02:15:23.907Z,4.30
2017-12-02T02:17:51.512Z,4.30
2017-12-02T02:20:19.065Z,4.30
2017-12-02T02:22:46.546Z,4.40
2017-12-02T02:25:14.156Z,4.40
2017-12-02T02:27:41.654Z,4.40
2017-12-02T02:30:09.322Z,4.40
2017-12-02T02:32:36.834Z,4.40
2017-12-02T02:35:04.395Z,4.40
2017-12-02T02:37:32.813Z,4.40
2017-12-02T02:40:00.384Z,4.40
2017-12-02T02:42:27.877Z,4.40
2017-12-02T02:44:55.390Z,4.40
2017-12-02T02:47:22.869Z,4.40
2017-12-02T02:49:50.381Z,4.50
2017-12-02T02:52:17.950Z,4.40
2017-12-02T02:54:45.440Z,4.50
2017-12-02T02:57:12.924Z,4.50
2017-12-02T02:59:40.533Z,4.50
2017-12-02T03:02:08.045Z,4.50
2017-12-02T03:04:35.561Z,4.50
2017-12-02T03:07:03.077Z,4.60
2017-12-02T03:09:30.599Z,4.60
2017-12-02T03:11:58.180Z,4.60
2017-12-02T03:14:25.679Z,4.60
2017-12-02T03:16:53.154Z,4.70
2017-12-02T03:19:20.799Z,4.70
2017-12-02T03:21:49.059Z,4.70
2017-12-02T03:24:16.672Z,4.70
2017-12-02T03:26:44.165Z,4.70
2017-12-02T03:29:11.721Z,4.70
2017-12-02T03:31:39.784Z,4.70
2017-12-02T03:34:07.285Z,4.70
2017-12-02T03:36:34.859Z,4.70
2017-12-02T03:39:02.536Z,4.70
2017-12-02T03:41:30.048Z,4.70
2017-12-02T03:43:57.592Z,4.70
2017-12-02T03:46:25.065Z,4.70
2017-12-02T03:48:52.667Z,4.70
2017-12-02T03:51:20.305Z,4.70
2017-12-02T03:53:48.896Z,4.70
2017-12-02T03:56:16.375Z,4.70
2017-12-02T03:58:44.812Z,4.60
2017-12-02T04:01:12.311Z,4.60
2017-12-02T04:03:39.792Z,4.60
2017-12-02T04:06:07.288Z,4.60
2017-12-02T04:08:35.477Z,4.50
2017-12-02T04:11:03.740Z,4.50
2017-12-02T04:13:31.256Z,4.50
2017-12-02T04:15:58.774Z,4.50
2017-12-02T04:18:27.023Z,4.50
2017-12-02T04:20:55.268Z,4.50
2017-12-02T04:23:23.444Z,4.50
2017-12-02T04:25:50.932Z,4.50
2017-12-02T04:28:18.642Z,4.50
2017-12-02T04:30:46.124Z,4.40
2017-12-02T04:33:13.750Z,4.40
2017-12-02T04:35:42.049Z,4.40
2017-12-02T04:38:09.525Z,4.30
2017-12-02T04:40:37.008Z,4.30
2017-12-02T04:43:04.612Z,4.20
2017-12-02T04:45:32.988Z,4.20
2017-12-02T04:48:01.367Z,4.00
2017-12-02T04:50:29.607Z,4.00
2017-12-02T04:52:57.311Z,4.00
2017-12-02T04:55:25.002Z,4.10
2017-12-02T04:57:52.486Z,4.10
2017-12-02T05:00:20.209Z,4.20
2017-12-02T05:02:47.808Z,4.20
2017-12-02T05:05:15.525Z,4.20
2017-12-02T05:07:43.103Z,4.10
2017-12-02T05:10:10.737Z,4.20
2017-12-02T05:12:38.408Z,4.20
2017-12-02T05:15:06.053Z,4.20
2017-12-02T05:17:33.528Z,4.30
2017-12-02T05:20:01.015Z,4.30
2017-12-02T05:22:28.517Z,4.30
2017-12-02T05:24:56.078Z,4.30
2017-12-02T05:27:25.313Z,4.40
2017-12-02T05:29:52.794Z,4.40
2017-12-02T05:32:20.299Z,4.50
2017-12-02T05:34:47.816Z,4.50
2017-12-02T05:37:15.294Z,4.60
2017-12-02T05:39:42.788Z,4.60
2017-12-02T05:42:11.041Z,4.60
2017-12-02T05:44:38.533Z,4.60
2017-12-02T05:47:06.773Z,4.60
2017-12-02T05:49:34.554Z,4.60
2017-12-02T05:52:02.062Z,4.60
2017-12-02T05:54:29.560Z,4.60
2017-12-02T05:56:57.812Z,4.60
2017-12-02T05:59:25.431Z,4.60
2017-12-02T06:01:53.723Z,4.50
2017-12-02T06:04:21.197Z,4.50
2017-12-02T06:06:48.816Z,4.40
2017-12-02T06:09:16.474Z,4.40
2017-12-02T06:11:44.741Z,4.40
2017-12-02T06:14:12.241Z,4.40
2017-12-02T06:16:39.873Z,4.40
2017-12-02T06:19:08.132Z,4.40
2017-12-02T06:21:35.601Z,4.40
2017-12-02T06:24:03.862Z,4.30
2017-12-02T06:26:31.343Z,4.30
2017-12-02T06:28:59.757Z,4.30
2017-12-02T06:31:27.392Z,4.30
2017-12-02T06:33:54.884Z,4.30
2017-12-02T06:36:22.477Z,4.30
2017-12-02T06:38:50.009Z,4.30
2017-12-02T06:41:17.497Z,4.30
2017-12-02T06:43:44.980Z,4.40
2017-12-02T06:46:12.475Z,4.40
2017-12-02T06:48:40.090Z,4.40
2017-12-02T06:51:07.565Z,4.40
2017-12-02T06:53:35.864Z,4.60
2017-12-02T06:56:03.400Z,4.50
2017-12-02T06:58:32.472Z,4.60
2017-12-02T07:00:59.960Z,4.60
2017-12-02T07:03:27.442Z,4.60
2017-12-02T07:05:54.925Z,4.60
2017-12-02T07:08:22.457Z,4.60
2017-12-02T07:10:50.376Z,4.70
2017-12-02T07:13:17.917Z,4.70
2017-12-02T07:15:45.569Z,4.70
2017-12-02T07:18:13.221Z,4.80
2017-12-02T07:20:40.716Z,4.80
2017-12-02T07:23:08.276Z,4.80
2017-12-02T07:25:35.765Z,4.80
2017-12-02T07:28:03.272Z,4.80
2017-12-02T07:30:30.751Z,4.80
2017-12-02T07:32:58.257Z,4.80
2017-12-02T07:35:25.815Z,4.80
2017-12-02T07:37:53.389Z,4.80
2017-12-02T07:40:20.916Z,4.80
2017-12-02T07:42:48.426Z,4.70
2017-12-02T07:45:15.924Z,4.70
2017-12-02T07:47:43.397Z,4.60
2017-12-02T07:50:10.895Z,4.50
2017-12-02T07:52:38.409Z,4.50
2017-12-02T07:55:06.812Z,4.50
2017-12-02T07:57:34.317Z,4.50
2017-12-02T08:00:01.800Z,4.60
2017-12-02T08:02:30.414Z,4.70
2017-12-02T08:05:02.067Z,4.60
2017-12-02T08:10:02.408Z,4.60
2017-12-02T08:12:29.911Z,4.60
2017-12-02T08:14:58.224Z,4.60
2017-12-02T08:17:25.741Z,4.50
2017-12-02T08:19:53.267Z,4.50
2017-12-02T08:22:20.784Z,4.40
2017-12-02T08:24:48.392Z,4.40
2017-12-02T08:27:16.001Z,4.30
2017-12-02T08:29:44.160Z,4.30
2017-12-02T08:32:11.849Z,4.30
2017-12-02T08:34:40.157Z,4.40
2017-12-02T08:37:07.651Z,4.30
2017-12-02T08:39:35.206Z,4.40
2017-12-02T08:42:02.698Z,4.50
2017-12-02T08:44:30.206Z,4.50
2017-12-02T08:46:58.579Z,4.50
2017-12-02T08:49:26.125Z,4.50
2017-12-02T08:51:53.860Z,4.40
2017-12-02T08:54:21.354Z,4.30
2017-12-02T08:56:48.880Z,4.20
2017-12-02T08:59:17.328Z,4.20
2017-12-02T09:01:44.844Z,4.10
2017-12-02T09:04:12.340Z,4.10
2017-12-02T09:06:40.179Z,4.10
2017-12-02T09:09:07.684Z,4.10
2017-12-02T09:11:35.188Z,4.10
2017-12-02T09:14:02.687Z,4.20
2017-12-02T09:16:30.306Z,4.20
2017-12-02T09:18:57.948Z,4.20
2017-12-02T09:21:25.442Z,4.30
2017-12-02T09:23:52.957Z,4.30
2017-12-02T09:26:22.099Z,4.30
2017-12-02T09:28:49.732Z,4.30
2017-12-02T09:31:17.246Z,4.30
2017-12-02T09:33:44.728Z,4.40
2017-12-02T09:36:12.306Z,4.50
2017-12-02T09:38:40.559Z,4.50
2017-12-02T09:41:08.156Z,4.50
2017-12-02T09:43:35.665Z,4.60
2017-12-02T09:46:03.157Z,4.60
2017-12-02T09:51:03.584Z,4.60
2017-12-02T09:53:32.688Z,4.60
2017-12-02T09:58:33.103Z,4.50
2017-12-02T10:01:00.582Z,4.50
2017-12-02T10:03:28.095Z,4.50
2017-12-02T10:05:55.657Z,4.50
2017-12-02T10:08:23.153Z,4.50
2017-12-02T10:10:50.656Z,4.40
2017-12-02T10:13:18.161Z,4.40
2017-12-02T10:15:45.660Z,4.40
2017-12-02T10:18:13.936Z,4.40
2017-12-02T10:20:42.213Z,4.50
2017-12-02T10:23:09.710Z,4.50
2017-12-02T10:25:37.228Z,4.50
2017-12-02T10:28:05.498Z,4.60
2017-12-02T10:30:32.996Z,4.60
2017-12-02T10:33:00.520Z,4.70
2017-12-02T10:35:28.005Z,4.70
2017-12-02T10:37:55.505Z,4.80
2017-12-02T10:40:23.008Z,4.80
2017-12-02T10:42:50.532Z,4.90
2017-12-02T10:45:18.042Z,5.00
2017-12-02T10:47:45.611Z,5.00
2017-12-02T10:50:13.117Z,5.10
2017-12-02T10:52:40.615Z,5.20
2017-12-02T10:55:08.876Z,5.30
2017-12-02T10:57:36.556Z,5.30
2017-12-02T11:00:04.043Z,5.40
2017-12-02T11:02:31.542Z,5.60
2017-12-02T11:04:59.056Z,5.60
2017-12-02T11:07:26.573Z,5.80
2017-12-02T11:09:54.467Z,5.90
2017-12-02T11:12:21.934Z,6.10
2017-12-02T11:14:49.421Z,6.10
2017-12-02T11:17:16.903Z,6.00
2017-12-02T11:19:44.469Z,6.00
2017-12-02T11:22:12.797Z,6.20
2017-12-02T11:24:40.302Z,6.20
2017-12-02T11:27:08.008Z,6.30
2017-12-02T11:29:35.773Z,6.30
2017-12-02T11:32:04.023Z,6.40
2017-12-02T11:34:32.266Z,6.50
2017-12-02T11:36:59.784Z,6.50
2017-12-02T11:39:27.401Z,6.60
2017-12-02T11:41:55.672Z,6.50
2017-12-02T11:44:23.364Z,6.50
2017-12-02T11:46:50.884Z,6.50
2017-12-02T11:49:18.511Z,6.50
2017-12-02T11:51:45.979Z,6.50
2017-12-02T11:54:13.627Z,6.50
2017-12-02T11:56:41.184Z,6.50
2017-12-02T11:59:08.667Z,6.50
2017-12-02T12:01:36.148Z,6.50
2017-12-02T12:04:03.654Z,6.50
2017-12-02T12:06:31.171Z,6.40
2017-12-02T12:08:58.672Z,6.40
2017-12-02T12:11:26.171Z,6.30
2017-12-02T12:13:53.647Z,6.30
2017-12-02T12:16:21.901Z,6.20
2017-12-02T12:18:49.489Z,6.20
2017-12-02T12:21:16.970Z,6.10
2017-12-02T12:23:44.525Z,6.10
2017-12-02T12:26:11.996Z,6.10
2017-12-02T12:28:39.556Z,6.10
2017-12-02T12:31:07.033Z,6.10
2017-12-02T12:33:34.545Z,6.00
2017-12-02T12:36:02.050Z,6.00
2017-12-02T12:38:29.556Z,5.90
2017-12-02T12:40:57.048Z,6.00
2017-12-02T12:43:24.523Z,6.00
2017-12-02T12:45:52.013Z,6.00
2017-12-02T12:48:19.520Z,6.00
2017-12-02T12:50:46.986Z,6.00
2017-12-02T12:53:14.622Z,6.00
2017-12-02T12:55:42.100Z,6.00
2017-12-02T12:58:09.601Z,6.10
2017-12-02T13:00:37.068Z,6.10
2017-12-02T13:03:04.587Z,6.00
2017-12-02T13:05:32.117Z,6.00
2017-12-02T13:08:00.431Z,6.00
2017-12-02T13:10:27.983Z,6.00
2017-12-02T13:12:55.503Z,6.00
2017-12-02T13:15:23.112Z,6.00
2017-12-02T13:17:50.601Z,6.00
2017-12-02T13:20:18.144Z,6.00
2017-12-02T13:22:45.636Z,5.90
2017-12-02T13:25:13.113Z,5.90
2017-12-02T13:27:40.632Z,5.80
2017-12-02T13:30:08.116Z,5.80
2017-12-02T13:32:36.516Z,5.70
2017-12-02T13:35:04.812Z,5.70
2017-12-02T13:37:32.349Z,5.70
2017-12-02T13:40:00.616Z,5.60
2017-12-02T13:42:28.112Z,5.60
2017-12-02T13:44:55.689Z,5.60
2017-12-02T13:47:23.190Z,5.60
2017-12-02T13:49:51.468Z,5.60
2017-12-02T13:52:19.784Z,5.50
2017-12-02T13:54:47.283Z,5.40
2017-12-02T13:57:14.772Z,5.40
2017-12-02T13:59:43.021Z,5.30
2017-12-02T14:02:10.532Z,5.30
2017-12-02T14:04:38.043Z,5.30
2017-12-02T14:07:07.056Z,5.10
2017-12-02T14:09:35.332Z,5.10
2017-12-02T14:12:02.843Z,5.10
2017-12-02T14:14:30.393Z,5.10
2017-12-02T14:16:57.945Z,5.00
2017-12-02T14:19:25.485Z,4.90
2017-12-02T14:21:53.719Z,4.90
2017-12-02T14:24:21.236Z,4.90
2017-12-02T14:26:48.756Z,4.90
2017-12-02T14:29:16.465Z,5.00
2017-12-02T14:31:43.963Z,5.00
2017-12-02T14:34:11.657Z,5.00
2017-12-02T14:36:39.143Z,5.10
2017-12-02T14:39:06.633Z,5.10
2017-12-02T14:41:34.123Z,5.20
2017-12-02T14:44:01.612Z,5.10
2017-12-02T14:46:29.117Z,5.10
2017-12-02T14:48:56.665Z,5.00
2017-12-02T14:51:24.168Z,5.00
2017-12-02T14:53:52.424Z,5.00
2017-12-02T14:56:19.930Z,5.00
2017-12-02T14:58:47.460Z,5.00
2017-12-02T15:01:15.732Z,5.10
2017-12-02T15:03:44.004Z,5.00
2017-12-02T15:06:11.484Z,5.00
2017-12-02T15:08:38.992Z,5.00
2017-12-02T15:11:06.512Z,5.00
2017-12-02T15:13:33.992Z,5.00
2017-12-02T15:16:01.805Z,4.90
2017-12-02T15:18:29.317Z,4.90
2017-12-02T15:20:56.834Z,4.90
2017-12-02T15:23:25.135Z,4.80
2017-12-02T15:25:52.607Z,4.80
2017-12-02T15:28:20.122Z,4.80
2017-12-02T15:30:48.403Z,4.80
2017-12-02T15:33:16.765Z,4.90
2017-12-02T15:35:44.444Z,4.80
2017-12-02T15:38:12.712Z,4.80
2017-12-02T15:40:40.220Z,4.80
2017-12-02T15:43:07.762Z,4.80
2017-12-02T15:45:35.244Z,4.80
2017-12-02T15:48:02.736Z,4.80
2017-12-02T15:50:30.249Z,4.80
2017-12-02T15:52:57.738Z,4.70
2017-12-02T15:55:25.226Z,4.70
2017-12-02T15:57:53.483Z,4.60
2017-12-02T16:00:21.363Z,4.60
2017-12-02T16:02:49.637Z,4.60
2017-12-02T16:05:17.224Z,4.60
2017-12-02T16:07:44.939Z,4.60
2017-12-02T16:10:12.682Z,4.50
2017-12-02T16:12:40.302Z,4.50
2017-12-02T16:15:07.808Z,4.50
2017-12-02T16:17:35.352Z,4.40
2017-12-02T16:20:03.197Z,4.50
2017-12-02T16:22:30.883Z,4.50
2017-12-02T16:24:58.382Z,4.50
2017-12-02T16:27:26.081Z,4.50
2017-12-02T16:29:53.588Z,4.50
2017-12-02T16:32:21.139Z,4.40
2017-12-02T16:34:49.235Z,4.40
2017-12-02T16:37:16.744Z,4.50
2017-12-02T16:39:44.241Z,4.50
2017-12-02T16:42:11.711Z,4.50
2017-12-02T16:44:39.333Z,4.60
2017-12-02T16:47:06.819Z,4.60
2017-12-02T16:49:34.332Z,4.60
2017-12-02T16:52:01.846Z,4.60
2017-12-02T16:54:29.635Z,4.50
2017-12-02T16:56:57.876Z,4.50
2017-12-02T16:59:25.365Z,4.50
2017-12-02T17:01:52.961Z,4.60
2017-12-02T17:04:20.475Z,4.60
2017-12-02T17:06:48.076Z,4.60
2017-12-02T17:09:15.596Z,4.60
2017-12-02T17:11:43.089Z,4.60
2017-12-02T17:14:11.360Z,4.50
2017-12-02T17:16:38.855Z,4.50
2017-12-02T17:19:06.472Z,4.50
2017-12-02T17:21:33.976Z,4.50
2017-12-02T17:24:01.478Z,4.50
2017-12-02T17:26:28.988Z,4.50
2017-12-02T17:28:56.466Z,4.50
2017-12-02T17:31:24.743Z,4.50
2017-12-02T17:33:52.208Z,4.50
2017-12-02T17:36:19.737Z,4.50
2017-12-02T17:38:48.104Z,4.50
2017-12-02T17:41:15.661Z,4.50
2017-12-02T17:43:43.165Z,4.50
2017-12-02T17:46:10.773Z,4.50
2017-12-02T17:48:38.265Z,4.60
2017-12-02T17:51:05.757Z,4.50
2017-12-02T17:53:33.267Z,4.40
2017-12-02T17:56:00.766Z,4.40
2017-12-02T17:58:29.931Z,4.30
2017-12-02T18:00:57.429Z,4.30
2017-12-02T18:03:25.027Z,4.40
2017-12-02T18:05:52.588Z,4.40
2017-12-02T18:08:20.096Z,4.40
2017-12-02T18:10:47.600Z,4.50
2017-12-02T18:13:15.115Z,4.40
2017-12-02T18:15:42.631Z,4.40
2017-12-02T18:18:10.113Z,4.40
2017-12-02T18:20:37.736Z,4.40
2017-12-02T18:23:05.352Z,4.40
2017-12-02T18:25:32.880Z,4.30
2017-12-02T18:28:00.492Z,4.30
2017-12-02T18:30:27.993Z,4.20
2017-12-02T18:32:55.503Z,4.30
2017-12-02T18:35:23.003Z,4.30
2017-12-02T18:37:50.506Z,4.40
2017-12-02T18:40:18.029Z,4.40
2017-12-02T18:42:45.506Z,4.40
2017-12-02T18:45:13.004Z,4.40
2017-12-02T18:47:41.293Z,4.20
2017-12-02T18:50:09.606Z,4.20
2017-12-02T18:52:37.102Z,4.20
2017-12-02T18:55:04.590Z,4.10
2017-12-02T18:57:32.849Z,3.90
2017-12-02T19:00:00.396Z,3.90
2017-12-02T19:02:27.904Z,3.90
2017-12-02T19:04:55.388Z,3.80
2017-12-02T19:07:22.929Z,3.70
2017-12-02T19:09:50.653Z,3.60
2017-12-02T19:12:19.631Z,3.50
2017-12-02T19:14:47.169Z,3.50
2017-12-02T19:17:14.649Z,3.50
2017-12-02T19:19:42.177Z,3.50
2017-12-02T19:22:09.664Z,3.50
2017-12-02T19:24:37.272Z,3.50
2017-12-02T19:27:04.765Z,3.50
2017-12-02T19:29:32.277Z,3.50
2017-12-02T19:31:59.797Z,3.50
2017-12-02T19:34:27.276Z,3.40
2017-12-02T19:36:54.797Z,3.30
2017-12-02T19:39:22.281Z,4.00
2017-12-02T19:41:49.828Z,3.20
2017-12-02T19:44:17.440Z,3.20
2017-12-02T19:46:45.744Z,3.10
2017-12-02T19:49:13.264Z,3.00
2017-12-02T19:51:41.541Z,3.00
2017-12-02T19:54:09.844Z,2.90
2017-12-02T19:56:37.344Z,2.90
2017-12-02T19:59:04.869Z,2.90
2017-12-02T20:01:32.531Z,2.90
2017-12-02T20:04:00.017Z,2.80
2017-12-02T20:06:27.536Z,2.80
2017-12-02T20:08:55.034Z,2.80
2017-12-02T20:11:22.565Z,2.70
2017-12-02T20:13:50.059Z,2.70
2017-12-02T20:16:17.690Z,2.70
2017-12-02T20:18:45.189Z,2.70
2017-12-02T20:21:12.731Z,2.60
2017-12-02T20:23:40.254Z,2.60
2017-12-02T20:26:07.758Z,2.60
2017-12-02T20:28:35.272Z,2.60
2017-12-02T20:31:02.768Z,2.50
2017-12-02T20:33:30.256Z,2.50
2017-12-02T20:35:57.814Z,2.50
2017-12-02T20:38:25.307Z,2.50
2017-12-02T20:40:52.884Z,2.40
2017-12-02T20:43:20.380Z,2.50
2017-12-02T20:45:48.015Z,2.40
2017-12-02T20:48:15.499Z,2.40
2017-12-02T20:50:42.997Z,2.50
2017-12-02T20:53:10.487Z,3.10
2017-12-02T20:55:37.983Z,2.50
2017-12-02T20:58:05.688Z,2.60
2017-12-02T21:00:33.166Z,2.70
2017-12-02T21:03:00.701Z,2.80
2017-12-02T21:05:28.363Z,2.90
2017-12-02T21:07:55.850Z,2.90
2017-12-02T21:10:23.495Z,3.00
2017-12-02T21:12:51.984Z,3.10
2017-12-02T21:15:19.508Z,3.20
2017-12-02T21:17:47.038Z,3.20
2017-12-02T21:20:14.561Z,3.10
2017-12-02T21:22:42.106Z,3.10
2017-12-02T21:25:09.609Z,3.10
2017-12-02T21:27:37.432Z,3.10
2017-12-02T21:30:04.928Z,3.10
2017-12-02T21:32:32.420Z,3.10
2017-12-02T21:34:59.958Z,3.10
2017-12-02T21:37:27.568Z,3.10
2017-12-02T21:39:55.153Z,3.20
2017-12-02T21:42:22.687Z,3.10
2017-12-02T21:44:50.153Z,3.10
2017-12-02T21:47:17.655Z,3.00
2017-12-02T21:49:45.147Z,2.90
2017-12-02T21:52:13.462Z,2.90
2017-12-02T21:54:40.936Z,2.90
2017-12-02T21:57:08.643Z,2.80
2017-12-02T21:59:36.159Z,2.80
2017-12-02T22:02:03.640Z,2.80
2017-12-02T22:04:31.340Z,2.80
2017-12-02T22:06:58.993Z,2.90
2017-12-02T22:09:26.564Z,2.90
2017-12-02T22:11:55.049Z,3.00
2017-12-02T22:14:22.745Z,3.00
2017-12-02T22:16:50.253Z,3.00
2017-12-02T22:19:18.535Z,3.00
2017-12-02T22:21:46.031Z,2.90
2017-12-02T22:24:13.548Z,3.00
2017-12-02T22:26:41.937Z,3.00
2017-12-02T22:29:09.540Z,3.00
2017-12-02T22:31:37.052Z,3.00
2017-12-02T22:34:05.426Z,2.90
2017-12-02T22:36:34.102Z,2.90
2017-12-02T22:39:01.573Z,2.80
2017-12-02T22:41:29.837Z,2.80
2017-12-02T22:43:57.441Z,2.70
2017-12-02T22:46:25.003Z,2.80
2017-12-02T22:48:53.485Z,2.80
2017-12-02T22:51:20.961Z,2.70
2017-12-02T22:53:48.568Z,2.80
2017-12-02T22:56:16.190Z,2.70
2017-12-02T22:58:43.677Z,2.60
2017-12-02T23:01:11.180Z,2.60
2017-12-02T23:03:38.664Z,2.50
2017-12-02T23:06:06.164Z,2.40
2017-12-02T23:08:33.647Z,2.40
2017-12-02T23:11:01.285Z,2.30
2017-12-02T23:13:28.776Z,2.30
2017-12-02T23:15:56.308Z,2.20
2017-12-02T23:18:23.753Z,2.00
2017-12-02T23:20:51.358Z,2.00
2017-12-02T23:23:18.831Z,2.00
2017-12-02T23:25:46.318Z,1.90
2017-12-02T23:28:13.789Z,1.90
2017-12-02T23:30:41.332Z,1.90
2017-12-02T23:33:08.768Z,1.80
2017-12-02T23:35:37.004Z,1.70
2017-12-02T23:38:05.256Z,1.70
2017-12-02T23:40:32.756Z,1.70
2017-12-02T23:43:00.316Z,1.70
2017-12-02T23:45:27.825Z,1.50
2017-12-02T23:47:55.510Z,1.50
2017-12-02T23:50:22.982Z,1.50
2017-12-02T23:52:50.499Z,1.60
2017-12-02T23:55:18.217Z,1.60
2017-12-02T23:57:45.728Z,1.50
